createdAt,value
2019-02-14T00:01:39.187Z,101916.70
2019-02-14T00:04:05.226Z,101914.19
2019-02-14T00:06:31.245Z,101914.19
2019-02-14T00:08:57.367Z,101909.60
2019-02-14T00:11:23.434Z,101885.44
2019-02-14T00:13:49.415Z,101890.23
2019-02-14T00:16:15.358Z,101890.23
2019-02-14T00:18:41.583Z,101894.03
2019-02-14T00:21:07.555Z,101892.43
2019-02-14T00:23:33.429Z,101891.50
2019-02-14T00:25:59.379Z,101898.44
2019-02-14T00:28:25.491Z,101888.41
2019-02-14T00:30:51.571Z,101889.44
2019-02-14T00:33:17.663Z,101884.03
2019-02-14T00:35:43.536Z,101886.91
2019-02-14T00:38:09.465Z,101886.86
2019-02-14T00:40:35.415Z,101888.37
2019-02-14T00:43:01.387Z,101882.92
2019-02-14T00:45:27.435Z,101888.30
2019-02-14T00:47:53.717Z,101882.46
2019-02-14T00:50:19.704Z,101877.56
2019-02-14T00:52:45.851Z,101877.56
2019-02-14T00:55:11.779Z,101872.81
2019-02-14T00:57:37.897Z,101872.22
2019-02-14T01:00:06.092Z,101881.05
2019-02-14T01:02:32.227Z,101871.78
2019-02-14T01:04:58.258Z,101871.78
2019-02-14T01:07:24.223Z,101873.32
2019-02-14T01:09:50.200Z,101873.32
2019-02-14T01:12:16.401Z,101875.83
2019-02-14T01:14:42.469Z,101868.35
2019-02-14T01:17:08.616Z,101868.35
2019-02-14T01:19:34.692Z,101876.47
2019-02-14T01:22:00.676Z,101876.20
2019-02-14T01:24:26.808Z,101876.20
2019-02-14T01:26:52.778Z,101872.48
2019-02-14T01:29:18.787Z,101872.48
2019-02-14T01:31:45.185Z,101865.02
2019-02-14T01:34:11.227Z,101869.77
2019-02-14T01:36:37.102Z,101863.28
2019-02-14T01:39:04.669Z,101863.28
2019-02-14T01:41:30.583Z,101851.13
2019-02-14T01:43:56.554Z,101851.13
2019-02-14T01:46:22.524Z,101864.70
2019-02-14T01:48:48.586Z,101867.92
2019-02-14T01:51:14.461Z,101860.30
2019-02-14T01:53:40.464Z,101856.91
2019-02-14T01:56:06.437Z,101852.42
2019-02-14T01:58:32.586Z,101853.84
2019-02-14T02:00:58.603Z,101858.75
2019-02-14T02:03:24.526Z,101858.75
2019-02-14T02:05:54.588Z,101846.66
2019-02-14T02:08:20.685Z,101848.73
2019-02-14T02:10:46.841Z,101854.56
2019-02-14T02:13:12.774Z,101839.89
2019-02-14T02:15:38.817Z,101839.89
2019-02-14T02:18:04.897Z,101853.25
2019-02-14T02:20:33.392Z,101849.94
2019-02-14T02:22:58.871Z,101838.70
2019-02-14T02:25:25.004Z,101838.70
2019-02-14T02:27:51.032Z,101836.26
2019-02-14T02:30:17.033Z,101834.98
2019-02-14T02:32:43.057Z,101834.98
2019-02-14T02:35:09.184Z,101830.20
2019-02-14T02:37:35.161Z,101830.89
2019-02-14T02:40:01.298Z,101822.94
2019-02-14T02:42:27.401Z,101825.50
2019-02-14T02:44:53.392Z,101819.29
2019-02-14T02:47:19.415Z,101820.22
2019-02-14T02:49:45.452Z,101813.20
2019-02-14T02:52:11.490Z,101819.83
2019-02-14T02:54:37.520Z,101816.73
2019-02-14T02:57:03.654Z,101818.03
2019-02-14T02:59:29.691Z,101820.65
2019-02-14T03:01:55.625Z,101820.98
2019-02-14T03:04:21.545Z,101821.48
2019-02-14T03:06:47.666Z,101818.31
2019-02-14T03:09:13.708Z,101809.59
2019-02-14T03:11:39.734Z,101809.59
2019-02-14T03:14:07.728Z,101804.36
2019-02-14T03:16:33.611Z,101804.36
2019-02-14T03:18:59.556Z,101803.92
2019-02-14T03:21:25.659Z,101811.10
2019-02-14T03:23:51.637Z,101810.52
2019-02-14T03:26:17.839Z,101807.16
2019-02-14T03:28:43.925Z,101805.59
2019-02-14T03:31:10.059Z,101791.27
2019-02-14T03:33:36.057Z,101802.59
2019-02-14T03:36:02.042Z,101804.67
2019-02-14T03:38:28.365Z,101791.76
2019-02-14T03:40:54.575Z,101798.56
2019-02-14T03:43:20.632Z,101797.45
2019-02-14T03:45:46.737Z,101799.00
2019-02-14T03:48:12.893Z,101801.08
2019-02-14T03:50:38.932Z,101792.20
2019-02-14T03:53:05.029Z,101788.61
2019-02-14T03:55:31.111Z,101790.27
2019-02-14T03:57:57.082Z,101786.47
2019-02-14T04:00:23.121Z,101785.06
2019-02-14T04:02:49.247Z,101793.02
2019-02-14T04:05:15.389Z,101795.50
2019-02-14T04:07:41.350Z,101792.69
2019-02-14T04:10:12.290Z,101797.48
2019-02-14T04:12:38.480Z,101790.78
2019-02-14T04:15:08.190Z,101785.11
2019-02-14T04:17:34.247Z,101788.01
2019-02-14T04:20:00.318Z,101786.80
2019-02-14T04:22:26.397Z,101780.77
2019-02-14T04:24:52.379Z,101785.49
2019-02-14T04:27:18.339Z,101784.19
2019-02-14T04:29:44.381Z,101778.08
2019-02-14T04:32:10.295Z,101777.75
2019-02-14T04:34:36.368Z,101781.67
2019-02-14T04:37:02.413Z,101782.43
2019-02-14T04:39:28.508Z,101783.03
2019-02-14T04:41:54.533Z,101777.08
2019-02-14T04:44:20.480Z,101775.79
2019-02-14T04:46:46.432Z,101776.22
2019-02-14T04:49:12.479Z,101787.33
2019-02-14T04:51:38.504Z,101781.55
2019-02-14T04:54:04.455Z,101778.92
2019-02-14T04:56:30.527Z,101780.33
2019-02-14T04:58:56.583Z,101796.37
2019-02-14T05:01:22.534Z,101781.94
2019-02-14T05:03:48.449Z,101789.23
2019-02-14T05:06:14.470Z,101784.80
2019-02-14T05:08:40.446Z,101805.48
2019-02-14T05:11:06.337Z,101786.88
2019-02-14T05:13:32.294Z,101781.58
2019-02-14T05:15:58.231Z,101782.78
2019-02-14T05:18:24.279Z,101774.38
2019-02-14T05:20:50.189Z,101771.20
2019-02-14T05:23:16.159Z,101769.15
2019-02-14T05:25:42.146Z,101768.34
2019-02-14T05:28:08.059Z,101768.08
2019-02-14T05:30:34.126Z,101764.86
2019-02-14T05:33:00.272Z,101762.09
2019-02-14T05:35:26.383Z,101763.17
2019-02-14T05:37:52.419Z,101756.83
2019-02-14T05:40:18.440Z,101755.47
2019-02-14T05:42:44.573Z,101752.43
2019-02-14T05:45:12.008Z,101743.77
2019-02-14T05:47:37.890Z,101750.03
2019-02-14T05:50:06.749Z,101748.91
2019-02-14T05:52:32.689Z,101747.84
2019-02-14T05:55:00.627Z,101751.78
2019-02-14T05:57:27.408Z,101737.38
2019-02-14T05:59:53.554Z,101740.26
2019-02-14T06:02:19.584Z,101735.13
2019-02-14T06:04:45.499Z,101739.83
2019-02-14T06:07:11.463Z,101751.03
2019-02-14T06:09:41.328Z,101743.05
2019-02-14T06:12:07.247Z,101739.31
2019-02-14T06:14:33.224Z,101737.84
2019-02-14T06:16:59.139Z,101733.77
2019-02-14T06:19:25.148Z,101733.84
2019-02-14T06:21:51.189Z,101726.30
2019-02-14T06:24:17.207Z,101729.48
2019-02-14T06:26:43.298Z,101735.92
2019-02-14T06:29:09.219Z,101740.17
2019-02-14T06:31:35.213Z,101739.00
2019-02-14T06:34:01.199Z,101733.93
2019-02-14T06:36:27.220Z,101731.53
2019-02-14T06:38:53.371Z,101734.86
2019-02-14T06:41:19.358Z,101735.59
2019-02-14T06:43:45.239Z,101736.75
2019-02-14T06:46:11.260Z,101742.21
2019-02-14T06:48:37.205Z,101740.78
2019-02-14T06:51:03.280Z,101744.80
2019-02-14T06:53:29.401Z,101752.77
2019-02-14T06:55:55.274Z,101744.66
2019-02-14T06:58:21.632Z,101736.66
2019-02-14T07:00:47.708Z,101732.95
2019-02-14T07:03:13.655Z,101732.48
2019-02-14T07:05:39.752Z,101729.55
2019-02-14T07:08:05.698Z,101727.47
2019-02-14T07:10:31.921Z,101730.68
2019-02-14T07:12:57.903Z,101714.27
2019-02-14T07:15:23.908Z,101712.03
2019-02-14T07:17:49.870Z,101719.84
2019-02-14T07:20:16.254Z,101716.13
2019-02-14T07:22:42.260Z,101715.05
2019-02-14T07:25:09.929Z,101716.44
2019-02-14T07:27:35.871Z,101708.49
2019-02-14T07:30:07.559Z,101712.84
2019-02-14T07:32:33.502Z,101701.77
2019-02-14T07:34:59.480Z,101701.77
2019-02-14T07:37:27.065Z,101706.02
2019-02-14T07:39:53.205Z,101704.45
2019-02-14T07:42:19.206Z,101704.45
2019-02-14T07:44:45.309Z,101674.91
2019-02-14T07:47:11.268Z,101702.38
2019-02-14T07:49:37.156Z,101702.59
2019-02-14T07:52:03.287Z,101713.04
2019-02-14T07:54:29.164Z,101699.70
2019-02-14T07:56:55.150Z,101694.86
2019-02-14T07:59:21.100Z,101691.96
2019-02-14T08:01:47.270Z,101696.89
2019-02-14T08:04:13.215Z,101686.37
2019-02-14T08:06:39.154Z,101693.78
2019-02-14T08:09:05.515Z,101693.78
2019-02-14T08:11:31.663Z,101652.97
2019-02-14T08:13:57.577Z,101691.88
2019-02-14T08:16:23.595Z,101693.77
2019-02-14T08:18:49.631Z,101688.34
2019-02-14T08:21:15.702Z,101684.65
2019-02-14T08:23:42.149Z,101685.72
2019-02-14T08:26:10.766Z,101681.13
2019-02-14T08:28:36.227Z,101686.70
2019-02-14T08:31:02.328Z,101684.54
2019-02-14T08:33:28.282Z,101684.54
2019-02-14T08:35:54.324Z,101692.77
2019-02-14T08:38:20.187Z,101691.36
2019-02-14T08:40:46.194Z,101688.98
2019-02-14T08:43:12.029Z,101711.84
2019-02-14T08:45:37.950Z,101688.36
2019-02-14T08:48:04.291Z,101683.85
2019-02-14T08:50:30.307Z,101686.41
2019-02-14T08:52:56.301Z,101672.48
2019-02-14T08:55:22.424Z,101673.42
2019-02-14T08:57:48.387Z,101667.47
2019-02-14T09:00:15.556Z,101672.83
2019-02-14T09:02:41.500Z,101669.47
2019-02-14T09:05:07.958Z,101674.50
2019-02-14T09:07:34.190Z,101667.97
2019-02-14T09:10:02.327Z,101671.52
2019-02-14T09:12:28.261Z,101664.70
2019-02-14T09:14:54.265Z,101662.66
2019-02-14T09:17:20.301Z,101664.05
2019-02-14T09:19:46.343Z,101664.58
2019-02-14T09:22:12.387Z,101665.47
2019-02-14T09:24:38.341Z,101664.86
2019-02-14T09:27:04.224Z,101663.75
2019-02-14T09:29:32.255Z,101665.95
2019-02-14T09:31:58.331Z,101669.52
2019-02-14T09:34:27.291Z,101663.88
2019-02-14T09:36:53.252Z,101667.09
2019-02-14T09:39:19.118Z,101670.68
2019-02-14T09:41:45.069Z,101662.36
2019-02-14T09:44:11.043Z,101659.76
2019-02-14T09:46:36.972Z,101665.52
2019-02-14T09:49:05.914Z,101661.55
2019-02-14T09:51:31.996Z,101658.89
2019-02-14T09:53:58.034Z,101660.77
2019-02-14T09:56:24.147Z,101661.67
2019-02-14T09:58:50.302Z,101668.67
2019-02-14T10:01:16.302Z,101664.70
2019-02-14T10:03:42.369Z,101664.72
2019-02-14T10:06:08.518Z,101664.70
2019-02-14T10:08:34.515Z,101662.05
2019-02-14T10:11:00.524Z,101664.33
2019-02-14T10:13:30.193Z,101667.89
2019-02-14T10:15:56.096Z,101663.50
2019-02-14T10:18:22.149Z,101652.51
2019-02-14T10:20:48.248Z,101656.02
2019-02-14T10:23:14.334Z,101654.73
2019-02-14T10:25:40.327Z,101653.40
2019-02-14T10:28:06.272Z,101653.39
2019-02-14T10:30:32.283Z,101644.16
2019-02-14T10:32:58.306Z,101649.47
2019-02-14T10:35:24.159Z,101643.69
2019-02-14T10:37:50.109Z,101637.08
2019-02-14T10:40:16.389Z,101633.94
2019-02-14T10:42:42.357Z,101631.16
2019-02-14T10:45:13.591Z,101629.33
2019-02-14T10:47:39.670Z,101624.81
2019-02-14T10:50:07.930Z,101614.56
2019-02-14T10:52:34.143Z,101607.41
2019-02-14T10:55:00.056Z,101605.69
2019-02-14T10:57:26.087Z,101615.75
2019-02-14T10:59:52.238Z,101596.13
2019-02-14T11:02:20.738Z,101591.50
2019-02-14T11:04:51.646Z,101596.08
2019-02-14T11:07:21.104Z,101612.88
2019-02-14T11:09:49.140Z,101607.27
2019-02-14T11:12:15.135Z,101585.73
2019-02-14T11:14:41.482Z,101586.09
2019-02-14T11:17:07.603Z,101577.98
2019-02-14T11:19:33.521Z,101578.45
2019-02-14T11:21:59.445Z,101575.73
2019-02-14T11:24:25.444Z,101569.68
2019-02-14T11:26:51.490Z,101564.78
2019-02-14T11:29:17.510Z,101558.97
2019-02-14T11:31:43.498Z,101554.02
2019-02-14T11:34:09.483Z,101557.50
2019-02-14T11:36:35.432Z,101546.38
2019-02-14T11:39:01.401Z,101544.59
2019-02-14T11:41:27.371Z,101542.64
2019-02-14T11:43:53.405Z,101543.79
2019-02-14T11:46:19.521Z,101539.20
2019-02-14T11:48:45.512Z,101533.49
2019-02-14T11:51:11.489Z,101534.30
2019-02-14T11:53:37.521Z,101532.80
2019-02-14T11:56:03.517Z,101530.61
2019-02-14T11:58:29.569Z,101533.33
2019-02-14T12:00:55.744Z,101533.83
2019-02-14T12:03:21.714Z,101532.89
2019-02-14T12:05:48.119Z,101539.60
2019-02-14T12:08:14.129Z,101523.98
2019-02-14T12:10:40.015Z,101519.62
2019-02-14T12:13:06.030Z,101521.87
2019-02-14T12:15:36.107Z,101518.75
2019-02-14T12:18:02.208Z,101506.69
2019-02-14T12:20:28.480Z,101500.95
2019-02-14T12:22:54.570Z,101502.42
2019-02-14T12:25:28.543Z,101500.53
2019-02-14T12:27:54.597Z,101499.10
2019-02-14T12:30:20.570Z,101490.33
2019-02-14T12:32:46.490Z,101474.88
2019-02-14T12:35:12.648Z,101464.89
2019-02-14T12:37:38.680Z,101466.89
2019-02-14T12:40:07.730Z,101476.39
2019-02-14T12:42:33.641Z,101462.16
2019-02-14T12:44:59.516Z,101454.30
2019-02-14T12:47:25.619Z,101447.65
2019-02-14T12:49:51.516Z,101436.40
2019-02-14T12:52:17.611Z,101441.57
2019-02-14T12:54:43.547Z,101437.32
2019-02-14T12:57:09.596Z,101432.75
2019-02-14T12:59:35.571Z,101432.36
2019-02-14T13:02:01.658Z,101421.84
2019-02-14T13:04:27.608Z,101418.12
2019-02-14T13:06:53.682Z,101415.22
2019-02-14T13:09:20.448Z,101411.24
2019-02-14T13:11:46.427Z,101406.47
2019-02-14T13:14:12.361Z,101402.38
2019-02-14T13:16:42.592Z,101405.20
2019-02-14T13:19:10.044Z,101404.80
2019-02-14T13:21:36.038Z,101401.27
2019-02-14T13:24:01.940Z,101403.39
2019-02-14T13:26:27.949Z,101404.09
2019-02-14T13:28:54.016Z,101405.73
2019-02-14T13:31:20.027Z,101412.59
2019-02-14T13:33:46.026Z,101421.62
2019-02-14T13:36:12.010Z,101415.53
2019-02-14T13:38:38.027Z,101421.36
2019-02-14T13:41:04.088Z,101417.62
2019-02-14T13:43:29.948Z,101425.62
2019-02-14T13:45:55.815Z,101421.26
2019-02-14T13:48:21.790Z,101425.88
2019-02-14T13:50:47.843Z,101407.04
2019-02-14T13:53:13.841Z,101389.11
2019-02-14T13:55:40.020Z,101375.60
2019-02-14T13:58:05.883Z,101373.80
2019-02-14T14:00:31.901Z,101366.50
2019-02-14T14:02:57.903Z,101357.28
2019-02-14T14:05:23.786Z,101366.50
2019-02-14T14:07:49.905Z,101357.30
2019-02-14T14:10:16.027Z,101353.73
2019-02-14T14:12:42.535Z,101352.37
2019-02-14T14:15:08.775Z,101348.88
2019-02-14T14:17:35.437Z,101356.86
2019-02-14T14:20:01.631Z,101352.55
2019-02-14T14:22:27.516Z,101357.44
2019-02-14T14:24:53.425Z,101347.66
2019-02-14T14:27:19.466Z,101347.37
2019-02-14T14:29:45.345Z,101348.09
2019-02-14T14:32:11.309Z,101341.27
2019-02-14T14:34:37.230Z,101346.05
2019-02-14T14:37:03.131Z,101358.69
2019-02-14T14:39:29.010Z,101352.78
2019-02-14T14:41:55.065Z,101347.81
2019-02-14T14:44:26.065Z,101350.37
2019-02-14T14:46:51.998Z,101351.05
2019-02-14T14:49:18.115Z,101344.91
2019-02-14T14:51:43.942Z,101345.66
2019-02-14T14:54:09.931Z,101341.88
2019-02-14T14:56:36.080Z,101345.20
2019-02-14T14:59:02.188Z,101347.34
2019-02-14T15:01:28.078Z,101337.96
2019-02-14T15:03:53.986Z,101347.56
2019-02-14T15:06:20.017Z,101342.48
2019-02-14T15:08:46.056Z,101350.84
2019-02-14T15:11:11.951Z,101344.09
2019-02-14T15:13:37.956Z,101342.46
2019-02-14T15:16:05.913Z,101346.86
2019-02-14T15:18:31.898Z,101337.52
2019-02-14T15:20:57.817Z,101343.73
2019-02-14T15:23:23.713Z,101342.80
2019-02-14T15:25:49.953Z,101338.11
2019-02-14T15:28:15.886Z,101339.13
2019-02-14T15:30:41.959Z,101333.63
2019-02-14T15:33:08.014Z,101327.90
2019-02-14T15:35:34.043Z,101338.30
2019-02-14T15:38:00.019Z,101336.64
2019-02-14T15:40:25.942Z,101333.53
2019-02-14T15:42:52.121Z,101345.14
2019-02-14T15:45:18.373Z,101347.05
2019-02-14T15:47:44.308Z,101345.37
2019-02-14T15:50:10.333Z,101343.48
2019-02-14T15:52:36.429Z,101339.91
2019-02-14T15:55:02.736Z,101339.84
2019-02-14T15:57:28.790Z,101337.14
2019-02-14T15:59:54.695Z,101336.75
2019-02-14T16:02:20.832Z,101328.89
2019-02-14T16:04:46.775Z,101330.20
2019-02-14T16:07:13.236Z,101326.04
2019-02-14T16:09:41.250Z,101325.05
2019-02-14T16:12:07.203Z,101330.11
2019-02-14T16:14:33.158Z,101330.11
2019-02-14T16:16:59.226Z,101329.63
2019-02-14T16:19:25.117Z,101328.87
2019-02-14T16:21:51.904Z,101326.26
2019-02-14T16:24:19.155Z,101321.81
2019-02-14T16:26:45.093Z,101331.51
2019-02-14T16:29:11.170Z,101327.05
2019-02-14T16:31:37.293Z,101333.36
2019-02-14T16:34:03.170Z,101336.50
2019-02-14T16:36:29.304Z,101333.24
2019-02-14T16:38:56.472Z,101330.81
2019-02-14T16:41:23.052Z,101328.44
2019-02-14T16:43:48.949Z,101330.04
2019-02-14T16:46:14.930Z,101348.28
2019-02-14T16:48:41.007Z,101333.89
2019-02-14T16:51:06.928Z,101334.48
2019-02-14T16:53:32.832Z,101332.09
2019-02-14T16:56:02.120Z,101336.53
2019-02-14T16:58:26.827Z,101337.63
2019-02-14T17:00:52.836Z,101336.94
2019-02-14T17:03:19.269Z,101332.58
2019-02-14T17:05:45.299Z,101334.52
2019-02-14T17:08:11.257Z,101336.00
2019-02-14T17:10:37.426Z,101336.78
2019-02-14T17:13:03.391Z,101343.80
2019-02-14T17:15:29.255Z,101343.23
2019-02-14T17:17:55.194Z,101344.53
2019-02-14T17:20:24.876Z,101346.21
2019-02-14T17:22:50.810Z,101350.36
2019-02-14T17:25:17.371Z,101357.00
2019-02-14T17:27:43.422Z,101352.31
2019-02-14T17:30:09.535Z,101365.20
2019-02-14T17:32:35.552Z,101374.48
2019-02-14T17:35:01.867Z,101378.56
2019-02-14T17:37:27.955Z,101390.98
2019-02-14T17:39:53.823Z,101384.31
2019-02-14T17:42:19.701Z,101386.25
2019-02-14T17:44:45.684Z,101388.50
2019-02-14T17:47:11.706Z,101391.97
2019-02-14T17:49:37.738Z,101389.77
2019-02-14T17:52:03.614Z,101399.48
2019-02-14T17:54:29.600Z,101405.73
2019-02-14T17:56:55.633Z,101404.06
2019-02-14T17:59:21.712Z,101407.63
2019-02-14T18:01:47.579Z,101408.14
2019-02-14T18:04:13.483Z,101411.69
2019-02-14T18:06:39.462Z,101419.15
2019-02-14T18:09:05.520Z,101420.44
2019-02-14T18:11:31.471Z,101422.66
2019-02-14T18:13:57.438Z,101423.14
2019-02-14T18:16:23.393Z,101433.69
2019-02-14T18:18:49.258Z,101436.36
2019-02-14T18:21:15.296Z,101442.08
2019-02-14T18:23:41.259Z,101442.52
2019-02-14T18:26:07.351Z,101457.42
2019-02-14T18:28:33.339Z,101445.97
2019-02-14T18:30:59.308Z,101449.09
2019-02-14T18:33:25.441Z,101462.27
2019-02-14T18:35:51.306Z,101459.60
2019-02-14T18:38:17.232Z,101456.05
2019-02-14T18:40:45.136Z,101455.63
2019-02-14T18:43:11.063Z,101463.09
2019-02-14T18:45:37.087Z,101460.93
2019-02-14T18:48:03.186Z,101453.44
2019-02-14T18:50:29.163Z,101437.99
2019-02-14T18:52:55.187Z,101458.21
2019-02-14T18:55:21.267Z,101465.64
2019-02-14T18:57:47.163Z,101469.55
2019-02-14T19:00:17.398Z,101472.69
2019-02-14T19:02:43.596Z,101481.06
2019-02-14T19:05:10.291Z,101485.88
2019-02-14T19:07:36.238Z,101476.66
2019-02-14T19:10:05.417Z,101476.18
2019-02-14T19:12:31.266Z,101485.00
2019-02-14T19:14:57.231Z,101495.59
2019-02-14T19:17:23.192Z,101498.66
2019-02-14T19:19:49.090Z,101493.80
2019-02-14T19:22:15.109Z,101500.80
2019-02-14T19:24:40.983Z,101489.78
2019-02-14T19:27:07.173Z,101488.03
2019-02-14T19:29:33.211Z,101489.72
2019-02-14T19:31:59.207Z,101496.30
2019-02-14T19:34:25.059Z,101486.15
2019-02-14T19:36:51.135Z,101493.04
2019-02-14T19:39:17.030Z,101487.74
2019-02-14T19:41:43.122Z,101484.79
2019-02-14T19:44:09.039Z,101485.24
2019-02-14T19:46:34.910Z,101487.02
2019-02-14T19:49:00.924Z,101485.13
2019-02-14T19:51:27.263Z,101485.11
2019-02-14T19:53:53.168Z,101491.64
2019-02-14T19:56:19.063Z,101484.66
2019-02-14T19:58:44.968Z,101474.95
2019-02-14T20:01:10.969Z,101488.53
2019-02-14T20:03:36.879Z,101486.31
2019-02-14T20:06:03.017Z,101481.94
2019-02-14T20:08:28.884Z,101480.22
2019-02-14T20:10:54.881Z,101482.87
2019-02-14T20:13:21.229Z,101473.68
2019-02-14T20:15:47.581Z,101468.35
2019-02-14T20:18:13.886Z,101478.45
2019-02-14T20:20:40.315Z,101475.45
2019-02-14T20:23:10.065Z,101472.36
2019-02-14T20:25:36.519Z,101475.83
2019-02-14T20:28:02.998Z,101474.44
2019-02-14T20:30:29.547Z,101475.70
2019-02-14T20:33:04.440Z,101476.58
2019-02-14T20:35:25.218Z,101471.76
2019-02-14T20:37:52.185Z,101455.88
2019-02-14T20:40:19.419Z,101456.25
2019-02-14T20:42:46.715Z,101458.47
2019-02-14T20:45:14.506Z,101466.80
2019-02-14T20:47:41.720Z,101472.11
2019-02-14T20:50:11.041Z,101459.30
2019-02-14T20:52:37.817Z,101460.13
2019-02-14T20:55:07.538Z,101472.36
2019-02-14T20:57:33.891Z,101466.72
2019-02-14T20:59:59.912Z,101461.88
2019-02-14T21:02:25.760Z,101456.14
2019-02-14T21:04:51.764Z,101453.01
2019-02-14T21:07:17.767Z,101451.73
2019-02-14T21:09:43.753Z,101463.19
2019-02-14T21:12:09.766Z,101467.09
2019-02-14T21:14:35.931Z,101465.27
2019-02-14T21:17:01.796Z,101441.86
2019-02-14T21:19:27.823Z,101459.50
2019-02-14T21:21:53.724Z,101463.06
2019-02-14T21:24:23.845Z,101470.80
2019-02-14T21:26:49.908Z,101473.08
2019-02-14T21:29:16.094Z,101474.48
2019-02-14T21:31:42.015Z,101457.65
2019-02-14T21:34:08.050Z,101453.09
2019-02-14T21:36:34.757Z,101461.61
2019-02-14T21:39:00.788Z,101471.09
2019-02-14T21:41:26.786Z,101461.50
2019-02-14T21:43:52.773Z,101457.11
2019-02-14T21:46:18.697Z,101454.73
2019-02-14T21:48:44.700Z,101452.36
2019-02-14T21:51:10.849Z,101457.19
2019-02-14T21:53:36.919Z,101457.48
2019-02-14T21:56:03.044Z,101460.06
2019-02-14T21:58:28.973Z,101454.14
2019-02-14T22:00:54.946Z,101450.52
2019-02-14T22:03:20.819Z,101458.44
2019-02-14T22:05:46.844Z,101446.30
2019-02-14T22:08:12.850Z,101440.44
2019-02-14T22:10:38.849Z,101438.34
2019-02-14T22:13:04.895Z,101435.14
2019-02-14T22:15:30.891Z,101444.75
2019-02-14T22:17:56.874Z,101439.27
2019-02-14T22:20:22.962Z,101439.30
2019-02-14T22:22:48.887Z,101435.70
2019-02-14T22:25:14.963Z,101442.52
2019-02-14T22:27:41.089Z,101444.66
2019-02-14T22:30:10.914Z,101433.80
2019-02-14T22:32:37.033Z,101446.11
2019-02-14T22:35:03.261Z,101437.98
2019-02-14T22:37:29.371Z,101437.98
2019-02-14T22:39:55.268Z,101443.19
2019-02-14T22:42:21.295Z,101430.19
2019-02-14T22:44:47.274Z,101439.09
2019-02-14T22:47:13.162Z,101432.84
2019-02-14T22:49:39.075Z,101439.34
2019-02-14T22:52:05.115Z,101438.45
2019-02-14T22:54:31.297Z,101434.09
2019-02-14T22:56:57.377Z,101450.53
2019-02-14T22:59:23.586Z,101441.27
2019-02-14T23:01:49.812Z,101440.45
2019-02-14T23:04:15.906Z,101440.45
2019-02-14T23:06:42.039Z,101441.25
2019-02-14T23:09:08.783Z,101437.03
2019-02-14T23:11:34.776Z,101444.27
2019-02-14T23:14:00.839Z,101463.31
2019-02-14T23:16:26.784Z,101462.64
2019-02-14T23:18:52.809Z,101461.38
2019-02-14T23:21:18.821Z,101465.09
2019-02-14T23:23:44.725Z,101462.70
2019-02-14T23:26:10.859Z,101466.77
2019-02-14T23:28:36.768Z,101469.01
2019-02-14T23:31:03.046Z,101467.39
2019-02-14T23:33:29.040Z,101469.03
2019-02-14T23:35:55.034Z,101471.73
2019-02-14T23:38:21.019Z,101467.56
2019-02-14T23:40:47.051Z,101471.36
2019-02-14T23:43:12.929Z,101478.58
2019-02-14T23:45:38.799Z,101477.92
2019-02-14T23:48:04.924Z,101486.55
2019-02-14T23:50:30.916Z,101482.30
2019-02-14T23:52:56.885Z,101491.56
2019-02-14T23:55:22.915Z,101479.48
2019-02-14T23:57:48.820Z,101480.03
